Airfield :
LOGIN :

Register | Disclaimer

   EN    FR    IT 

 










Legend :    VFR   Marginal VFR   IFR   Intensive IFR   Very Intensive IFR
Visi :
Ceiling :
>= 8 km
>= 3000ft
5 to 8 km
1000 to 3000 ft
1500m to 5 km
500 to 1000 ft
800 to 1500m
200 to 500 ft
< 800m
< 200 ft
Symbols :   Thunderstorms  Fog  Heavy snow  Heavy precipitations  Wind > 20 kt
SIGMETs :     Misc.  Thunderstorms  Icing  Turbulence  Mountain Waves  Volcanic Ashes






- Airport Elevation : 287 ft


LFRL - Lanveoc Poulmic

CURRENT METAR :
  • 181930Z AUTO 21014KT 9000 -RADZ OVC007 10/10 Q1020 TEMPO 2000 RADZ BKN003 BECMG 21015G25KT

EXPIRED METARs :
  • 181900Z AUTO 21015KT 9999 BKN007 OVC015 10/10 Q1021 TEMPO 2000 RADZ BKN003 BECMG 21015G25KT
  • 181830Z AUTO 21012KT 9999 OVC006 10/09 Q1021 TEMPO 2000 RADZ BKN003 BECMG 21015G25KT
  • 181800Z AUTO 20012KT 5000 -DZ BR BKN004 OVC008 10/09 Q1021 TEMPO 2000 RADZ BECMG 21015G25KT
  • 181730Z AUTO 21012KT 9999 BKN006 OVC029 10/09 Q1021 TEMPO 2000 RADZ BKN003 BECMG 21015G25KT
  • 181700Z AUTO 20010KT 9999 BKN007 OVC027 10/09 Q1022 TEMPO 2000 RADZ BKN003 BECMG 21015G25KT

TAF TAF LFRL
Valid from the 18 at 12:00 until the 19 at 12:00 UTC


181100Z 1812/1912 19010KT 9999 OVC023
BECMG 1813/1815 21015G25KT BKN007 OVC012
TEMPO 1813/1903 2000 RADZ BKN003
BECMG 1910/1912 20018G30KT



MET'MAP, your aeronautical weather chart ! - Copyright ORBIFLY December 2007 - Disclaimer

ORBIFLY MET'MAP TEAM :

Programming & Development : Alexandra Zaïnal
Concept & original design : Baudouin d'Aumeries
Assistance for programming : Marc-Olivier Méhu
Technical & hardware support : Manuel Goepfert

Contact : metmap@orbifly.com




SOURCES & CREDITS :

   NOAA